Aviation Digital Data Service (ADDS)

Output produced by METARs form (1908 UTC 18 June 2019)
found at http://www.aviationweather.gov/metar/data/
 
METAR text: PHTO 181901Z 11003KT 4SM -RA SCT020 BKN028 OVC070 26/21 A3005 RMK AO2 P0001 T02610211
Conditions at: PHTO (HILO , HI, US) observed 1901 UTC 18 June 2019
Temperature: 26.1°C (79°F)
Dewpoint: 21.1°C (70°F) [RH = 74%]
Pressure (altimeter): 30.05 inches Hg (1017.7 mb)
Winds: from the ESE (110 degrees) at 3 MPH (3 knots; 1.5 m/s)
Visibility: 4 miles ( 6 km)
Ceiling: 2800 feet AGL
Clouds: scattered clouds at 2000 feet AGL
broken clouds at 2800 feet AGL
overcast cloud deck at 7000 feet AGL
Weather: -RA  (light rain)

METAR text: PHTO 181853Z VRB04KT 7SM -RA FEW020 BKN050 OVC070 27/21 A3005 RMK AO2 RAB32 SLP173 P0000 T02670211
Conditions at: PHTO (HILO , HI, US) observed 1853 UTC 18 June 2019
Temperature: 26.7°C (80°F)
Dewpoint: 21.1°C (70°F) [RH = 71%]
Pressure (altimeter): 30.05 inches Hg (1017.7 mb)
[Sea-level pressure: 1017.3 mb]
Winds: variable direction winds at 5 MPH (4 knots; 2.1 m/s)
Visibility: 7 miles (11 km)
Ceiling: 5000 feet AGL
Clouds: few clouds at 2000 feet AGL
broken clouds at 5000 feet AGL
overcast cloud deck at 7000 feet AGL
Weather: -RA  (light rain)

METAR text: PHTO 181753Z COR 26005KT 10SM BKN065 26/21 A3004 RMK AO2 SLP172 60001 T02560206 10256 20233 53012
Conditions at: PHTO (HILO , HI, US) observed 1753 UTC 18 June 2019
Temperature: 25.6°C (78°F)
Dewpoint: 20.6°C (69°F) [RH = 74%]
Pressure (altimeter): 30.04 inches Hg (1017.4 mb)
[Sea-level pressure: 1017.2 mb]
Winds: from the W (260 degrees) at 6 MPH (5 knots; 2.6 m/s)
Visibility: 10 or more miles (16+ km)
Ceiling: 6500 feet AGL
Clouds: broken clouds at 6500 feet AGL
Weather: no significant weather observed at this time

METAR text: PHTO 181653Z 24005KT 10SM FEW021 SCT050 BKN060 24/21 A3003 RMK AO2 SLP168 T02390206
Conditions at: PHTO (HILO , HI, US) observed 1653 UTC 18 June 2019
Temperature: 23.9°C (75°F)
Dewpoint: 20.6°C (69°F) [RH = 82%]
Pressure (altimeter): 30.03 inches Hg (1017.0 mb)
[Sea-level pressure: 1016.8 mb]
Winds: from the WSW (240 degrees) at 6 MPH (5 knots; 2.6 m/s)
Visibility: 10 or more miles (16+ km)
Ceiling: 6000 feet AGL
Clouds: few clouds at 2100 feet AGL
scattered clouds at 5000 feet AGL
broken clouds at 6000 feet AGL
Weather: no significant weather observed at this time

METAR text: PHTO 181553Z 24005KT 9SM FEW021 BKN047 23/21 A3002 RMK AO2 SLP163 T02330211
Conditions at: PHTO (HILO , HI, US) observed 1553 UTC 18 June 2019
Temperature: 23.3°C (74°F)
Dewpoint: 21.1°C (70°F) [RH = 87%]
Pressure (altimeter): 30.02 inches Hg (1016.7 mb)
[Sea-level pressure: 1016.3 mb]
Winds: from the WSW (240 degrees) at 6 MPH (5 knots; 2.6 m/s)
Visibility: 9 miles (14 km)
Ceiling: 4700 feet AGL
Clouds: few clouds at 2100 feet AGL
broken clouds at 4700 feet AGL
Weather: no significant weather observed at this time

METAR text: PHTO 181514Z AUTO 26003KT 9SM SCT018 OVC047 24/21 A3001 RMK AO2 T02390211 TSNO
Conditions at: PHTO (HILO , HI, US) observed 1514 UTC 18 June 2019
Temperature: 23.9°C (75°F)
Dewpoint: 21.1°C (70°F) [RH = 84%]
Pressure (altimeter): 30.01 inches Hg (1016.3 mb)
Winds: from the W (260 degrees) at 3 MPH (3 knots; 1.5 m/s)
Visibility: 9 miles (14 km)
Ceiling: 4700 feet AGL
Clouds: scattered clouds at 1800 feet AGL
overcast cloud deck at 4700 feet AGL
Weather: automated observation with no human augmentation;
there may or may not be significant weather present at this time

METAR text: PHTO 181453Z AUTO VRB04KT 10SM OVC018 24/21 A3001 RMK AO2 RAB18E50 SLP159 P0001 60001 T02390211 53001 TSNO
Conditions at: PHTO (HILO , HI, US) observed 1453 UTC 18 June 2019
Temperature: 23.9°C (75°F)
Dewpoint: 21.1°C (70°F) [RH = 84%]
Pressure (altimeter): 30.01 inches Hg (1016.3 mb)
[Sea-level pressure: 1015.9 mb]
Winds: variable direction winds at 5 MPH (4 knots; 2.1 m/s)
Visibility: 10 or more miles (16+ km)
Ceiling: 1800 feet AGL
Clouds: overcast cloud deck at 1800 feet AGL
Weather: automated observation with no human augmentation;
there may or may not be significant weather present at this time

METAR text: PHTO 181353Z AUTO 24003KT 9SM BKN020 BKN031 OVC065 24/22 A3000 RMK AO2 SLP158 T02440217 TSNO
Conditions at: PHTO (HILO , HI, US) observed 1353 UTC 18 June 2019
Temperature: 24.4°C (76°F)
Dewpoint: 21.7°C (71°F) [RH = 85%]
Pressure (altimeter): 30.00 inches Hg (1016.0 mb)
[Sea-level pressure: 1015.8 mb]
Winds: from the WSW (240 degrees) at 3 MPH (3 knots; 1.5 m/s)
Visibility: 9 miles (14 km)
Ceiling: 2000 feet AGL
Clouds: broken clouds at 2000 feet AGL
broken clouds at 3100 feet AGL
overcast cloud deck at 6500 feet AGL
Weather: automated observation with no human augmentation;
there may or may not be significant weather present at this time

METAR text: PHTO 181351Z AUTO 24003KT 9SM BKN021 BKN031 OVC065 24/22 A3000 RMK AO2 TSNO
Conditions at: PHTO (HILO , HI, US) observed 1351 UTC 18 June 2019
Temperature: 24.0°C (75°F)
Dewpoint: 22.0°C (72°F) [RH = 89%]
Pressure (altimeter): 30.00 inches Hg (1016.0 mb)
Winds: from the WSW (240 degrees) at 3 MPH (3 knots; 1.5 m/s)
Visibility: 9 miles (14 km)
Ceiling: 2100 feet AGL
Clouds: broken clouds at 2100 feet AGL
broken clouds at 3100 feet AGL
overcast cloud deck at 6500 feet AGL
Weather: automated observation with no human augmentation;
there may or may not be significant weather present at this time

METAR text: PHTO 181323Z AUTO 24004KT 9SM SCT023 BKN041 BKN050 24/22 A3000 RMK AO2 T02390217 TSNO
Conditions at: PHTO (HILO , HI, US) observed 1323 UTC 18 June 2019
Temperature: 23.9°C (75°F)
Dewpoint: 21.7°C (71°F) [RH = 88%]
Pressure (altimeter): 30.00 inches Hg (1016.0 mb)
Winds: from the WSW (240 degrees) at 5 MPH (4 knots; 2.1 m/s)
Visibility: 9 miles (14 km)
Ceiling: 4100 feet AGL
Clouds: scattered clouds at 2300 feet AGL
broken clouds at 4100 feet AGL
broken clouds at 5000 feet AGL
Weather: automated observation with no human augmentation;
there may or may not be significant weather present at this time

METAR text: PHTO 181253Z AUTO 25003KT 9SM BKN021 BKN041 BKN049 24/22 A3000 RMK AO2 SLP158 T02440217 TSNO
Conditions at: PHTO (HILO , HI, US) observed 1253 UTC 18 June 2019
Temperature: 24.4°C (76°F)
Dewpoint: 21.7°C (71°F) [RH = 85%]
Pressure (altimeter): 30.00 inches Hg (1016.0 mb)
[Sea-level pressure: 1015.8 mb]
Winds: from the WSW (250 degrees) at 3 MPH (3 knots; 1.5 m/s)
Visibility: 9 miles (14 km)
Ceiling: 2100 feet AGL
Clouds: broken clouds at 2100 feet AGL
broken clouds at 4100 feet AGL
broken clouds at 4900 feet AGL
Weather: automated observation with no human augmentation;
there may or may not be significant weather present at this time

METAR text: PHTO 181207Z AUTO 00000KT 8SM BKN022 BKN027 OVC065 24/22 A3001 RMK AO2 T02440217 TSNO
Conditions at: PHTO (HILO , HI, US) observed 1207 UTC 18 June 2019
Temperature: 24.4°C (76°F)
Dewpoint: 21.7°C (71°F) [RH = 85%]
Pressure (altimeter): 30.01 inches Hg (1016.3 mb)
Winds: calm
Visibility: 8 miles (13 km)
Ceiling: 2200 feet AGL
Clouds: broken clouds at 2200 feet AGL
broken clouds at 2700 feet AGL
overcast cloud deck at 6500 feet AGL
Weather: automated observation with no human augmentation;
there may or may not be significant weather present at this time

METAR text: PHTO 181153Z AUTO 08003KT 9SM SCT023 SCT027 BKN045 24/22 A3002 RMK AO2 SLP164 60007 70014 T02440217 10261 20244 58008 TSNO
Conditions at: PHTO (HILO , HI, US) observed 1153 UTC 18 June 2019
Temperature: 24.4°C (76°F)
Dewpoint: 21.7°C (71°F) [RH = 85%]
Pressure (altimeter): 30.02 inches Hg (1016.7 mb)
[Sea-level pressure: 1016.4 mb]
Winds: from the E (80 degrees) at 3 MPH (3 knots; 1.5 m/s)
Visibility: 9 miles (14 km)
Ceiling: 4500 feet AGL
Clouds: scattered clouds at 2300 feet AGL
scattered clouds at 2700 feet AGL
broken clouds at 4500 feet AGL
Weather: automated observation with no human augmentation;
there may or may not be significant weather present at this time

METAR text: PHTO 181053Z AUTO 25004KT 9SM SCT024 SCT040 BKN065 24/22 A3003 RMK AO2 SLP168 T02440217 TSNO
Conditions at: PHTO (HILO , HI, US) observed 1053 UTC 18 June 2019
Temperature: 24.4°C (76°F)
Dewpoint: 21.7°C (71°F) [RH = 85%]
Pressure (altimeter): 30.03 inches Hg (1017.0 mb)
[Sea-level pressure: 1016.8 mb]
Winds: from the WSW (250 degrees) at 5 MPH (4 knots; 2.1 m/s)
Visibility: 9 miles (14 km)
Ceiling: 6500 feet AGL
Clouds: scattered clouds at 2400 feet AGL
scattered clouds at 4000 feet AGL
broken clouds at 6500 feet AGL
Weather: automated observation with no human augmentation;
there may or may not be significant weather present at this time

METAR text: PHTO 180953Z AUTO 22003KT 9SM SCT020 BKN033 OVC060 25/22 A3004 RMK AO2 RAB0856E19 SLP172 P0007 T02500217 403060206 TSNO
Conditions at: PHTO (HILO , HI, US) observed 0953 UTC 18 June 2019
Temperature: 25.0°C (77°F)
Dewpoint: 21.7°C (71°F) [RH = 82%]
Pressure (altimeter): 30.04 inches Hg (1017.4 mb)
[Sea-level pressure: 1017.2 mb]
Winds: from the SW (220 degrees) at 3 MPH (3 knots; 1.5 m/s)
Visibility: 9 miles (14 km)
Ceiling: 3300 feet AGL
Clouds: scattered clouds at 2000 feet AGL
broken clouds at 3300 feet AGL
overcast cloud deck at 6000 feet AGL
Weather: automated observation with no human augmentation;
there may or may not be significant weather present at this time

METAR text: PHTO 180948Z AUTO 23004KT 9SM SCT020 BKN047 OVC060 25/22 A3004 RMK AO2 RAB0856E19 P0007 TSNO
Conditions at: PHTO (HILO , HI, US) observed 0948 UTC 18 June 2019
Temperature: 25.0°C (77°F)
Dewpoint: 22.0°C (72°F) [RH = 83%]
Pressure (altimeter): 30.04 inches Hg (1017.4 mb)
Winds: from the SW (230 degrees) at 5 MPH (4 knots; 2.1 m/s)
Visibility: 9 miles (14 km)
Ceiling: 4700 feet AGL
Clouds: scattered clouds at 2000 feet AGL
broken clouds at 4700 feet AGL
overcast cloud deck at 6000 feet AGL
Weather: automated observation with no human augmentation;
there may or may not be significant weather present at this time

METAR text: PHTO 180913Z AUTO 20003KT 7SM -RA BKN022 OVC055 25/22 A3005 RMK AO2 RAB0856 P0007 T02500217 TSNO
Conditions at: PHTO (HILO , HI, US) observed 0913 UTC 18 June 2019
Temperature: 25.0°C (77°F)
Dewpoint: 21.7°C (71°F) [RH = 82%]
Pressure (altimeter): 30.05 inches Hg (1017.7 mb)
Winds: from the SSW (200 degrees) at 3 MPH (3 knots; 1.5 m/s)
Visibility: 7 miles (11 km)
Ceiling: 2200 feet AGL
Clouds: broken clouds at 2200 feet AGL
overcast cloud deck at 5500 feet AGL
Weather: -RA  (light rain)

METAR text: PHTO 180859Z AUTO 19004KT 2 1/2SM RA BKN021 BKN031 OVC046 25/22 A3005 RMK AO2 RAB56 P0000 T02500222 TSNO
Conditions at: PHTO (HILO , HI, US) observed 0859 UTC 18 June 2019
Temperature: 25.0°C (77°F)
Dewpoint: 22.2°C (72°F) [RH = 84%]
Pressure (altimeter): 30.05 inches Hg (1017.7 mb)
Winds: from the S (190 degrees) at 5 MPH (4 knots; 2.1 m/s)
Visibility: 2.50 miles (4.02 km)
Ceiling: 2100 feet AGL
Clouds: broken clouds at 2100 feet AGL
broken clouds at 3100 feet AGL
overcast cloud deck at 4600 feet AGL
Weather: RA  (moderate rain)

METAR text: PHTO 180853Z AUTO 00000KT 9SM SCT023 BKN031 OVC049 26/22 A3005 RMK AO2 RAE0754B15E27 SLP175 P0000 60000 T02560222 50009 TSNO
Conditions at: PHTO (HILO , HI, US) observed 0853 UTC 18 June 2019
Temperature: 25.6°C (78°F)
Dewpoint: 22.2°C (72°F) [RH = 82%]
Pressure (altimeter): 30.05 inches Hg (1017.7 mb)
[Sea-level pressure: 1017.5 mb]
Winds: calm
Visibility: 9 miles (14 km)
Ceiling: 3100 feet AGL
Clouds: scattered clouds at 2300 feet AGL
broken clouds at 3100 feet AGL
overcast cloud deck at 4900 feet AGL
Weather: automated observation with no human augmentation;
there may or may not be significant weather present at this time

METAR text: PHTO 180827Z AUTO 00000KT 10SM SCT024 BKN037 OVC060 26/22 A3006 RMK AO2 RAE0754B15E27 P0000 T02560217 TSNO
Conditions at: PHTO (HILO , HI, US) observed 0827 UTC 18 June 2019
Temperature: 25.6°C (78°F)
Dewpoint: 21.7°C (71°F) [RH = 79%]
Pressure (altimeter): 30.06 inches Hg (1018.0 mb)
Winds: calm
Visibility: 10 or more miles (16+ km)
Ceiling: 3700 feet AGL
Clouds: scattered clouds at 2400 feet AGL
broken clouds at 3700 feet AGL
overcast cloud deck at 6000 feet AGL
Weather: automated observation with no human augmentation;
there may or may not be significant weather present at this time

METAR text: PHTO 180753Z 24004KT 10SM -RA BKN024 OVC065 26/22 A3006 RMK AO2 RAB36 SLP176 P0000 T02560217
Conditions at: PHTO (HILO , HI, US) observed 0753 UTC 18 June 2019
Temperature: 25.6°C (78°F)
Dewpoint: 21.7°C (71°F) [RH = 79%]
Pressure (altimeter): 30.06 inches Hg (1018.0 mb)
[Sea-level pressure: 1017.6 mb]
Winds: from the WSW (240 degrees) at 5 MPH (4 knots; 2.1 m/s)
Visibility: 10 or more miles (16+ km)
Ceiling: 2400 feet AGL
Clouds: broken clouds at 2400 feet AGL
overcast cloud deck at 6500 feet AGL
Weather: -RA  (light rain)

METAR text: PHTO 180724Z 25004KT 10SM BKN026 OVC060 26/22 A3005 RMK AO2 T02610217
Conditions at: PHTO (HILO , HI, US) observed 0724 UTC 18 June 2019
Temperature: 26.1°C (79°F)
Dewpoint: 21.7°C (71°F) [RH = 77%]
Pressure (altimeter): 30.05 inches Hg (1017.7 mb)
Winds: from the WSW (250 degrees) at 5 MPH (4 knots; 2.1 m/s)
Visibility: 10 or more miles (16+ km)
Ceiling: 2600 feet AGL
Clouds: broken clouds at 2600 feet AGL
overcast cloud deck at 6000 feet AGL
Weather: no significant weather observed at this time

METAR text: PHTO 180653Z 22003KT 10SM FEW042 SCT060 OVC070 26/21 A3004 RMK AO2 SLP170 T02610211
Conditions at: PHTO (HILO , HI, US) observed 0653 UTC 18 June 2019
Temperature: 26.1°C (79°F)
Dewpoint: 21.1°C (70°F) [RH = 74%]
Pressure (altimeter): 30.04 inches Hg (1017.4 mb)
[Sea-level pressure: 1017.0 mb]
Winds: from the SW (220 degrees) at 3 MPH (3 knots; 1.5 m/s)
Visibility: 10 or more miles (16+ km)
Ceiling: 7000 feet AGL
Clouds: few clouds at 4200 feet AGL
scattered clouds at 6000 feet AGL
overcast cloud deck at 7000 feet AGL
Weather: no significant weather observed at this time

METAR text: PHTO 180553Z 17003KT 10SM OVC065 26/21 A3002 RMK AO2 SLP166 T02610211 10300 20261 53021
Conditions at: PHTO (HILO , HI, US) observed 0553 UTC 18 June 2019
Temperature: 26.1°C (79°F)
Dewpoint: 21.1°C (70°F) [RH = 74%]
Pressure (altimeter): 30.02 inches Hg (1016.7 mb)
[Sea-level pressure: 1016.6 mb]
Winds: from the S (170 degrees) at 3 MPH (3 knots; 1.5 m/s)
Visibility: 10 or more miles (16+ km)
Ceiling: 6500 feet AGL
Clouds: overcast cloud deck at 6500 feet AGL
Weather: no significant weather observed at this time

METAR text: PHTO 180453Z 14005KT 10SM BKN070 27/21 A3000 RMK AO2 SLP157 T02670211
Conditions at: PHTO (HILO , HI, US) observed 0453 UTC 18 June 2019
Temperature: 26.7°C (80°F)
Dewpoint: 21.1°C (70°F) [RH = 71%]
Pressure (altimeter): 30.00 inches Hg (1016.0 mb)
[Sea-level pressure: 1015.7 mb]
Winds: from the SE (140 degrees) at 6 MPH (5 knots; 2.6 m/s)
Visibility: 10 or more miles (16+ km)
Ceiling: 7000 feet AGL
Clouds: broken clouds at 7000 feet AGL
Weather: no significant weather observed at this time

METAR text: PHTO 180353Z 12010KT 10SM BKN060 OVC070 27/22 A2998 RMK AO2 SLP149 T02720217
Conditions at: PHTO (HILO , HI, US) observed 0353 UTC 18 June 2019
Temperature: 27.2°C (81°F)
Dewpoint: 21.7°C (71°F) [RH = 72%]
Pressure (altimeter): 29.98 inches Hg (1015.3 mb)
[Sea-level pressure: 1014.9 mb]
Winds: from the ESE (120 degrees) at 12 MPH (10 knots; 5.1 m/s)
Visibility: 10 or more miles (16+ km)
Ceiling: 6000 feet AGL
Clouds: broken clouds at 6000 feet AGL
overcast cloud deck at 7000 feet AGL
Weather: no significant weather observed at this time

METAR text: PHTO 180253Z 12009KT 10SM OVC070 27/22 A2996 RMK AO2 SLP145 T02720217 55005
Conditions at: PHTO (HILO , HI, US) observed 0253 UTC 18 June 2019
Temperature: 27.2°C (81°F)
Dewpoint: 21.7°C (71°F) [RH = 72%]
Pressure (altimeter): 29.96 inches Hg (1014.6 mb)
[Sea-level pressure: 1014.5 mb]
Winds: from the ESE (120 degrees) at 10 MPH (9 knots; 4.6 m/s)
Visibility: 10 or more miles (16+ km)
Ceiling: 7000 feet AGL
Clouds: overcast cloud deck at 7000 feet AGL
Weather: no significant weather observed at this time

METAR text: PHTO 180153Z 11009KT 10SM OVC070 29/22 A2996 RMK AO2 SLP144 T02890222
Conditions at: PHTO (HILO , HI, US) observed 0153 UTC 18 June 2019
Temperature: 28.9°C (84°F)
Dewpoint: 22.2°C (72°F) [RH = 67%]
Pressure (altimeter): 29.96 inches Hg (1014.6 mb)
[Sea-level pressure: 1014.4 mb]
Winds: from the ESE (110 degrees) at 10 MPH (9 knots; 4.6 m/s)
Visibility: 10 or more miles (16+ km)
Ceiling: 7000 feet AGL
Clouds: overcast cloud deck at 7000 feet AGL
Weather: no significant weather observed at this time

METAR text: PHTO 180053Z 12011KT 10SM OVC070 29/21 A2997 RMK AO2 SLP146 T02890211
Conditions at: PHTO (HILO , HI, US) observed 0053 UTC 18 June 2019
Temperature: 28.9°C (84°F)
Dewpoint: 21.1°C (70°F) [RH = 63%]
Pressure (altimeter): 29.97 inches Hg (1015.0 mb)
[Sea-level pressure: 1014.6 mb]
Winds: from the ESE (120 degrees) at 13 MPH (11 knots; 5.7 m/s)
Visibility: 10 or more miles (16+ km)
Ceiling: 7000 feet AGL
Clouds: overcast cloud deck at 7000 feet AGL
Weather: no significant weather observed at this time

METAR text: PHTO 172353Z 11013G21KT 10SM BKN065 30/22 A2998 RMK AO2 SLP150 60001 T03000222 10306 20250 56013
Conditions at: PHTO (HILO , HI, US) observed 2353 UTC 17 June 2019
Temperature: 30.0°C (86°F)
Dewpoint: 22.2°C (72°F) [RH = 63%]
Pressure (altimeter): 29.98 inches Hg (1015.3 mb)
[Sea-level pressure: 1015.0 mb]
Winds: from the ESE (110 degrees) at 15 MPH (13 knots; 6.7 m/s)
gusting to 24 MPH (21 knots; 10.8 m/s)
Visibility: 10 or more miles (16+ km)
Ceiling: 6500 feet AGL
Clouds: broken clouds at 6500 feet AGL
Weather: no significant weather observed at this time

METAR text: PHTO 172253Z 15010KT 10SM FEW027 SCT036 30/22 A2999 RMK AO2 SLP154 T03000222
Conditions at: PHTO (HILO , HI, US) observed 2253 UTC 17 June 2019
Temperature: 30.0°C (86°F)
Dewpoint: 22.2°C (72°F) [RH = 63%]
Pressure (altimeter): 29.99 inches Hg (1015.7 mb)
[Sea-level pressure: 1015.4 mb]
Winds: from the SSE (150 degrees) at 12 MPH (10 knots; 5.1 m/s)
Visibility: 10 or more miles (16+ km)
Ceiling: at least 12,000 feet AGL
Clouds: few clouds at 2700 feet AGL
scattered clouds at 3600 feet AGL
Weather: no significant weather observed at this time

METAR text: PHTO 172153Z 15007KT 10SM FEW027 BKN070 29/22 A3000 RMK AO2 SLP157 T02940217
Conditions at: PHTO (HILO , HI, US) observed 2153 UTC 17 June 2019
Temperature: 29.4°C (85°F)
Dewpoint: 21.7°C (71°F) [RH = 63%]
Pressure (altimeter): 30.00 inches Hg (1016.0 mb)
[Sea-level pressure: 1015.7 mb]
Winds: from the SSE (150 degrees) at 8 MPH (7 knots; 3.6 m/s)
Visibility: 10 or more miles (16+ km)
Ceiling: 7000 feet AGL
Clouds: few clouds at 2700 feet AGL
broken clouds at 7000 feet AGL
Weather: no significant weather observed at this time

METAR text: PHTO 172053Z 18006KT 10SM BKN050 OVC060 27/23 A3002 RMK AO2 RAB12E35 SLP162 P0001 60001 T02720228 53003
Conditions at: PHTO (HILO , HI, US) observed 2053 UTC 17 June 2019
Temperature: 27.2°C (81°F)
Dewpoint: 22.8°C (73°F) [RH = 77%]
Pressure (altimeter): 30.02 inches Hg (1016.7 mb)
[Sea-level pressure: 1016.2 mb]
Winds: from the S (180 degrees) at 7 MPH (6 knots; 3.1 m/s)
Visibility: 10 or more miles (16+ km)
Ceiling: 5000 feet AGL
Clouds: broken clouds at 5000 feet AGL
overcast cloud deck at 6000 feet AGL
Weather: no significant weather observed at this time

METAR text: PHTO 172033Z 15005KT 7SM -RA FEW026 BKN049 OVC055 27/22 A3002 RMK AO2 RAB12 P0001 T02670222
Conditions at: PHTO (HILO , HI, US) observed 2033 UTC 17 June 2019
Temperature: 26.7°C (80°F)
Dewpoint: 22.2°C (72°F) [RH = 76%]
Pressure (altimeter): 30.02 inches Hg (1016.7 mb)
Winds: from the SSE (150 degrees) at 6 MPH (5 knots; 2.6 m/s)
Visibility: 7 miles (11 km)
Ceiling: 4900 feet AGL
Clouds: few clouds at 2600 feet AGL
broken clouds at 4900 feet AGL
overcast cloud deck at 5500 feet AGL
Weather: -RA  (light rain)

METAR text: PHTO 172023Z 14007KT 2 1/2SM -RA SCT027 BKN034 OVC055 26/22 A3002 RMK AO2 RAB12 P0000 T02610222
Conditions at: PHTO (HILO , HI, US) observed 2023 UTC 17 June 2019
Temperature: 26.1°C (79°F)
Dewpoint: 22.2°C (72°F) [RH = 79%]
Pressure (altimeter): 30.02 inches Hg (1016.7 mb)
Winds: from the SE (140 degrees) at 8 MPH (7 knots; 3.6 m/s)
Visibility: 2.50 miles (4.02 km)
Ceiling: 3400 feet AGL
Clouds: scattered clouds at 2700 feet AGL
broken clouds at 3400 feet AGL
overcast cloud deck at 5500 feet AGL
Weather: -RA  (light rain)

METAR text: PHTO 172007Z 10015KT 10SM BKN028 OVC035 27/22 A3002 RMK AO2 T02720217
Conditions at: PHTO (HILO , HI, US) observed 2007 UTC 17 June 2019
Temperature: 27.2°C (81°F)
Dewpoint: 21.7°C (71°F) [RH = 72%]
Pressure (altimeter): 30.02 inches Hg (1016.7 mb)
Winds: from the E (100 degrees) at 17 MPH (15 knots; 7.7 m/s)
Visibility: 10 or more miles (16+ km)
Ceiling: 2800 feet AGL
Clouds: broken clouds at 2800 feet AGL
overcast cloud deck at 3500 feet AGL
Weather: no significant weather observed at this time

METAR text: PHTO 171953Z 12009KT 10SM FEW028 BKN033 OVC070 28/21 A3001 RMK AO2 SLP161 T02830211
Conditions at: PHTO (HILO , HI, US) observed 1953 UTC 17 June 2019
Temperature: 28.3°C (83°F)
Dewpoint: 21.1°C (70°F) [RH = 65%]
Pressure (altimeter): 30.01 inches Hg (1016.3 mb)
[Sea-level pressure: 1016.1 mb]
Winds: from the ESE (120 degrees) at 10 MPH (9 knots; 4.6 m/s)
Visibility: 10 or more miles (16+ km)
Ceiling: 3300 feet AGL
Clouds: few clouds at 2800 feet AGL
broken clouds at 3300 feet AGL
overcast cloud deck at 7000 feet AGL
Weather: no significant weather observed at this time

METAR text: PHTO 171853Z 21005KT 10SM BKN070 28/22 A3001 RMK AO2 SLP160 T02780217
Conditions at: PHTO (HILO , HI, US) observed 1853 UTC 17 June 2019
Temperature: 27.8°C (82°F)
Dewpoint: 21.7°C (71°F) [RH = 69%]
Pressure (altimeter): 30.01 inches Hg (1016.3 mb)
[Sea-level pressure: 1016.0 mb]
Winds: from the SSW (210 degrees) at 6 MPH (5 knots; 2.6 m/s)
Visibility: 10 or more miles (16+ km)
Ceiling: 7000 feet AGL
Clouds: broken clouds at 7000 feet AGL
Weather: no significant weather observed at this time

METAR text: PHTO 171753Z 21004KT 10SM FEW022 BKN080 25/21 A3001 RMK AO2 SLP159 60006 T02500211 10250 20211 52002
Conditions at: PHTO (HILO , HI, US) observed 1753 UTC 17 June 2019
Temperature: 25.0°C (77°F)
Dewpoint: 21.1°C (70°F) [RH = 79%]
Pressure (altimeter): 30.01 inches Hg (1016.3 mb)
[Sea-level pressure: 1015.9 mb]
Winds: from the SSW (210 degrees) at 5 MPH (4 knots; 2.1 m/s)
Visibility: 10 or more miles (16+ km)
Ceiling: 8000 feet AGL
Clouds: few clouds at 2200 feet AGL
broken clouds at 8000 feet AGL
Weather: no significant weather observed at this time

METAR text: PHTO 171705Z 25004KT 10SM SCT022 BKN033 BKN046 23/21 A3001 RMK AO2 T02280206
Conditions at: PHTO (HILO , HI, US) observed 1705 UTC 17 June 2019
Temperature: 22.8°C (73°F)
Dewpoint: 20.6°C (69°F) [RH = 87%]
Pressure (altimeter): 30.01 inches Hg (1016.3 mb)
Winds: from the WSW (250 degrees) at 5 MPH (4 knots; 2.1 m/s)
Visibility: 10 or more miles (16+ km)
Ceiling: 3300 feet AGL
Clouds: scattered clouds at 2200 feet AGL
broken clouds at 3300 feet AGL
broken clouds at 4600 feet AGL
Weather: no significant weather observed at this time

METAR text: PHTO 171653Z 24005KT 10SM BKN022 BKN033 OVC046 22/20 A3001 RMK AO2 RAE18 SLP159 P0000 T02220200
Conditions at: PHTO (HILO , HI, US) observed 1653 UTC 17 June 2019
Temperature: 22.2°C (72°F)
Dewpoint: 20.0°C (68°F) [RH = 87%]
Pressure (altimeter): 30.01 inches Hg (1016.3 mb)
[Sea-level pressure: 1015.9 mb]
Winds: from the WSW (240 degrees) at 6 MPH (5 knots; 2.6 m/s)
Visibility: 10 or more miles (16+ km)
Ceiling: 2200 feet AGL
Clouds: broken clouds at 2200 feet AGL
broken clouds at 3300 feet AGL
overcast cloud deck at 4600 feet AGL
Weather: no significant weather observed at this time

METAR text: PHTO 171634Z 25003KT 10SM BKN021 BKN027 OVC033 22/19 A3001 RMK AO2 RAE18 P0000 T02170194
Conditions at: PHTO (HILO , HI, US) observed 1634 UTC 17 June 2019
Temperature: 21.7°C (71°F)
Dewpoint: 19.4°C (67°F) [RH = 87%]
Pressure (altimeter): 30.01 inches Hg (1016.3 mb)
Winds: from the WSW (250 degrees) at 3 MPH (3 knots; 1.5 m/s)
Visibility: 10 or more miles (16+ km)
Ceiling: 2100 feet AGL
Clouds: broken clouds at 2100 feet AGL
broken clouds at 2700 feet AGL
overcast cloud deck at 3300 feet AGL
Weather: no significant weather observed at this time

METAR text: PHTO 171553Z 25005KT 7SM -RA FEW015 OVC035 21/19 A3000 RMK AO2 SLP157 P0005 T02110194
Conditions at: PHTO (HILO , HI, US) observed 1553 UTC 17 June 2019
Temperature: 21.1°C (70°F)
Dewpoint: 19.4°C (67°F) [RH = 90%]
Pressure (altimeter): 30.00 inches Hg (1016.0 mb)
[Sea-level pressure: 1015.7 mb]
Winds: from the WSW (250 degrees) at 6 MPH (5 knots; 2.6 m/s)
Visibility: 7 miles (11 km)
Ceiling: 3500 feet AGL
Clouds: few clouds at 1500 feet AGL
overcast cloud deck at 3500 feet AGL
Weather: -RA  (light rain)

METAR text: PHTO 171544Z AUTO 26005KT 2SM -RA BR FEW016 SCT025 OVC029 21/19 A3000 RMK AO2 P0005 T02110194 TSNO
Conditions at: PHTO (HILO , HI, US) observed 1544 UTC 17 June 2019
Temperature: 21.1°C (70°F)
Dewpoint: 19.4°C (67°F) [RH = 90%]
Pressure (altimeter): 30.00 inches Hg (1016.0 mb)
Winds: from the W (260 degrees) at 6 MPH (5 knots; 2.6 m/s)
Visibility: 2.00 miles (3.22 km)
Ceiling: 2900 feet AGL
Clouds: few clouds at 1600 feet AGL
scattered clouds at 2500 feet AGL
overcast cloud deck at 2900 feet AGL
Weather: -RA BR  (light rain, mist)

METAR text: PHTO 171513Z AUTO 23003KT 4SM -RA BR FEW013 OVC026 21/19 A2999 RMK AO2 P0002 T02110189 TSNO
Conditions at: PHTO (HILO , HI, US) observed 1513 UTC 17 June 2019
Temperature: 21.1°C (70°F)
Dewpoint: 18.9°C (66°F) [RH = 87%]
Pressure (altimeter): 29.99 inches Hg (1015.7 mb)
Winds: from the SW (230 degrees) at 3 MPH (3 knots; 1.5 m/s)
Visibility: 4 miles ( 6 km)
Ceiling: 2600 feet AGL
Clouds: few clouds at 1300 feet AGL
overcast cloud deck at 2600 feet AGL
Weather: -RA BR  (light rain, mist)

METAR text: PHTO 171500Z AUTO 20005KT 2 1/2SM -RA BR OVC028 21/19 A2999 RMK AO2 P0001 T02110189 TSNO
Conditions at: PHTO (HILO , HI, US) observed 1500 UTC 17 June 2019
Temperature: 21.1°C (70°F)
Dewpoint: 18.9°C (66°F) [RH = 87%]
Pressure (altimeter): 29.99 inches Hg (1015.7 mb)
Winds: from the SSW (200 degrees) at 6 MPH (5 knots; 2.6 m/s)
Visibility: 2.50 miles (4.02 km)
Ceiling: 2800 feet AGL
Clouds: overcast cloud deck at 2800 feet AGL
Weather: -RA BR  (light rain, mist)

METAR text: PHTO 171453Z AUTO 19004KT 4SM -RA OVC030 22/19 A2999 RMK AO2 RAE03B24 SLP152 P0001 60001 T02170189 53003 TSNO
Conditions at: PHTO (HILO , HI, US) observed 1453 UTC 17 June 2019
Temperature: 21.7°C (71°F)
Dewpoint: 18.9°C (66°F) [RH = 84%]
Pressure (altimeter): 29.99 inches Hg (1015.7 mb)
[Sea-level pressure: 1015.2 mb]
Winds: from the S (190 degrees) at 5 MPH (4 knots; 2.1 m/s)
Visibility: 4 miles ( 6 km)
Ceiling: 3000 feet AGL
Clouds: overcast cloud deck at 3000 feet AGL
Weather: -RA  (light rain)

METAR text: PHTO 171412Z AUTO 20003KT 10SM FEW027 BKN033 OVC048 22/19 A2998 RMK AO2 RAE03 P0001 T02170194 TSNO
Conditions at: PHTO (HILO , HI, US) observed 1412 UTC 17 June 2019
Temperature: 21.7°C (71°F)
Dewpoint: 19.4°C (67°F) [RH = 87%]
Pressure (altimeter): 29.98 inches Hg (1015.3 mb)
Winds: from the SSW (200 degrees) at 3 MPH (3 knots; 1.5 m/s)
Visibility: 10 or more miles (16+ km)
Ceiling: 3300 feet AGL
Clouds: few clouds at 2700 feet AGL
broken clouds at 3300 feet AGL
overcast cloud deck at 4800 feet AGL
Weather: automated observation with no human augmentation;
there may or may not be significant weather present at this time

METAR text: PHTO 171353Z AUTO 17003KT 3SM -RA BR BKN027 OVC037 22/19 A2998 RMK AO2 RAE1254B46 SLP151 P0000 T02170194 TSNO
Conditions at: PHTO (HILO , HI, US) observed 1353 UTC 17 June 2019
Temperature: 21.7°C (71°F)
Dewpoint: 19.4°C (67°F) [RH = 87%]
Pressure (altimeter): 29.98 inches Hg (1015.3 mb)
[Sea-level pressure: 1015.1 mb]
Winds: from the S (170 degrees) at 3 MPH (3 knots; 1.5 m/s)
Visibility: 3 miles ( 5 km)
Ceiling: 2700 feet AGL
Clouds: broken clouds at 2700 feet AGL
overcast cloud deck at 3700 feet AGL
Weather: -RA BR  (light rain, mist)

METAR text: PHTO 171328Z AUTO VRB03KT 10SM BKN026 OVC032 22/19 A2998 RMK AO2 RAE1254 P0000 T02170194 TSNO
Conditions at: PHTO (HILO , HI, US) observed 1328 UTC 17 June 2019
Temperature: 21.7°C (71°F)
Dewpoint: 19.4°C (67°F) [RH = 87%]
Pressure (altimeter): 29.98 inches Hg (1015.3 mb)
Winds: variable direction winds at 3 MPH (3 knots; 1.5 m/s)
Visibility: 10 or more miles (16+ km)
Ceiling: 2600 feet AGL
Clouds: broken clouds at 2600 feet AGL
overcast cloud deck at 3200 feet AGL
Weather: automated observation with no human augmentation;
there may or may not be significant weather present at this time

METAR text: PHTO 171253Z AUTO 21004KT 8SM -RA OVC038 21/19 A2998 RMK AO2 RAB44 SLP149 P0000 T02110189 TSNO
Conditions at: PHTO (HILO , HI, US) observed 1253 UTC 17 June 2019
Temperature: 21.1°C (70°F)
Dewpoint: 18.9°C (66°F) [RH = 87%]
Pressure (altimeter): 29.98 inches Hg (1015.3 mb)
[Sea-level pressure: 1014.9 mb]
Winds: from the SSW (210 degrees) at 5 MPH (4 knots; 2.1 m/s)
Visibility: 8 miles (13 km)
Ceiling: 3800 feet AGL
Clouds: overcast cloud deck at 3800 feet AGL
Weather: -RA  (light rain)

METAR text: PHTO 171153Z AUTO 00000KT 10SM BKN042 BKN055 21/18 A2997 RMK AO2 SLP149 60008 70008 T02110178 10239 20206 58018 TSNO
Conditions at: PHTO (HILO , HI, US) observed 1153 UTC 17 June 2019
Temperature: 21.1°C (70°F)
Dewpoint: 17.8°C (64°F) [RH = 81%]
Pressure (altimeter): 29.97 inches Hg (1015.0 mb)
[Sea-level pressure: 1014.9 mb]
Winds: calm
Visibility: 10 or more miles (16+ km)
Ceiling: 4200 feet AGL
Clouds: broken clouds at 4200 feet AGL
broken clouds at 5500 feet AGL
Weather: automated observation with no human augmentation;
there may or may not be significant weather present at this time

METAR text: PHTO 171053Z AUTO 00000KT 10SM CLR 21/19 A3000 RMK AO2 SLP157 T02110189 TSNO
Conditions at: PHTO (HILO , HI, US) observed 1053 UTC 17 June 2019
Temperature: 21.1°C (70°F)
Dewpoint: 18.9°C (66°F) [RH = 87%]
Pressure (altimeter): 30.00 inches Hg (1016.0 mb)
[Sea-level pressure: 1015.7 mb]
Winds: calm
Visibility: 10 or more miles (16+ km)
Ceiling: at least 12,000 feet AGL
Clouds: sky clear below 12,000 feet AGL
Weather: automated observation with no human augmentation;
there may or may not be significant weather present at this time

METAR text: PHTO 170953Z AUTO 00000KT 10SM CLR 22/19 A3002 RMK AO2 SLP163 T02170194 402940206 TSNO
Conditions at: PHTO (HILO , HI, US) observed 0953 UTC 17 June 2019
Temperature: 21.7°C (71°F)
Dewpoint: 19.4°C (67°F) [RH = 87%]
Pressure (altimeter): 30.02 inches Hg (1016.7 mb)
[Sea-level pressure: 1016.3 mb]
Winds: calm
Visibility: 10 or more miles (16+ km)
Ceiling: at least 12,000 feet AGL
Clouds: sky clear below 12,000 feet AGL
Weather: automated observation with no human augmentation;
there may or may not be significant weather present at this time

METAR text: PHTO 170853Z AUTO 15003KT 10SM FEW025 SCT034 BKN050 22/20 A3003 RMK AO2 RAB37E51 SLP166 P0002 60008 T02220200 51007 TSNO
Conditions at: PHTO (HILO , HI, US) observed 0853 UTC 17 June 2019
Temperature: 22.2°C (72°F)
Dewpoint: 20.0°C (68°F) [RH = 87%]
Pressure (altimeter): 30.03 inches Hg (1017.0 mb)
[Sea-level pressure: 1016.6 mb]
Winds: from the SSE (150 degrees) at 3 MPH (3 knots; 1.5 m/s)
Visibility: 10 or more miles (16+ km)
Ceiling: 5000 feet AGL
Clouds: few clouds at 2500 feet AGL
scattered clouds at 3400 feet AGL
broken clouds at 5000 feet AGL
Weather: automated observation with no human augmentation;
there may or may not be significant weather present at this time

METAR text: PHTO 170753Z 23005KT 10SM FEW055 22/20 A3003 RMK AO2 RAE0657 SLP166 P0000 T02220200
Conditions at: PHTO (HILO , HI, US) observed 0753 UTC 17 June 2019
Temperature: 22.2°C (72°F)
Dewpoint: 20.0°C (68°F) [RH = 87%]
Pressure (altimeter): 30.03 inches Hg (1017.0 mb)
[Sea-level pressure: 1016.6 mb]
Winds: from the SW (230 degrees) at 6 MPH (5 knots; 2.6 m/s)
Visibility: 10 or more miles (16+ km)
Ceiling: at least 12,000 feet AGL
Clouds: few clouds at 5500 feet AGL
Weather: no significant weather observed at this time

Forecast for: PHTO (HILO , HI, US)
Text: PHTO 181740Z 1818/1918 24005KT P6SM VCSH SCT020 BKN045
Forecast period: 1800 to 2000 UTC 18 June 2019
Forecast type: FROM: standard forecast or significant change
Winds: from the WSW (240 degrees) at 6 MPH (5 knots; 2.6 m/s)
Visibility: 6 or more miles 10+ km)
Ceiling: 4500 feet AGL
Clouds: scattered clouds at 2000 feet AGL
broken clouds at 4500 feet AGL
Weather: VCSH  (showers in vicinity)
Text: FM182000 10008KT P6SM VCSH SCT025 BKN040
Forecast period: 2000 UTC 18 June 2019 to 0500 UTC 19 June 2019
Forecast type: FROM: standard forecast or significant change
Winds: from the E (100 degrees) at 9 MPH (8 knots; 4.1 m/s)
Visibility: 6 or more miles 10+ km)
Ceiling: 4000 feet AGL
Clouds: scattered clouds at 2500 feet AGL
broken clouds at 4000 feet AGL
Weather: VCSH  (showers in vicinity)
Text: FM190500 24005KT P6SM VCSH SCT025 BKN040
Forecast period: 0500 to 1800 UTC 19 June 2019
Forecast type: FROM: standard forecast or significant change
Winds: from the WSW (240 degrees) at 6 MPH (5 knots; 2.6 m/s)
Visibility: 6 or more miles 10+ km)
Ceiling: 4000 feet AGL
Clouds: scattered clouds at 2500 feet AGL
broken clouds at 4000 feet AGL
Weather: VCSH  (showers in vicinity)